Time;durP1;ratioP1;P1;durP2;ratioP2;P2;SDS_P1;SDS_P2;PMS_P1;PMS_P2;Temp;Humidity;BMP_temperature;BMP_pressure;BME280_temperature;BME280_humidity;BME280_pressure;Samples;Min_cycle;Max_cycle;Signal;HPM_P1;HPM_P2
2024/02/12 00:00:43;;;;;;;3.30;0.60;;;;;;;7.96;68.15;93834.81;5088643;28;20421;-75
2024/02/12 00:03:09;;;;;;;6.57;1.25;;;;;;;7.88;68.34;93825.34;5087787;28;20020;-75
2024/02/12 00:05:38;;;;;;;2.40;0.80;;;;;;;7.98;68.02;93819.50;5070708;28;20457;-74
2024/02/12 00:08:07;;;;;;;3.65;0.60;;;;;;;7.90;67.68;93818.19;5069477;28;20032;-74
2024/02/12 00:10:34;;;;;;;2.45;0.40;;;;;;;8.01;67.99;93809.59;5088292;28;20028;-74
2024/02/12 00:12:59;;;;;;;4.57;0.75;;;;;;;7.91;66.94;93808.03;5088556;28;20046;-75
2024/02/12 00:15:25;;;;;;;6.65;2.58;;;;;;;7.94;67.56;93810.63;5087250;28;20425;-74
2024/02/12 00:17:50;;;;;;;10.25;0.80;;;;;;;7.87;66.32;93796.47;5088638;28;20047;-75
2024/02/12 00:20:16;;;;;;;2.63;0.80;;;;;;;7.76;65.53;93785.13;5069008;28;20113;-74
2024/02/12 00:22:42;;;;;;;4.20;0.52;;;;;;;7.80;65.00;93781.06;5088274;28;20032;-75
2024/02/12 00:25:11;;;;;;;1.95;0.28;;;;;;;7.75;64.59;93772.69;5087432;28;20039;-75
2024/02/12 00:27:37;;;;;;;5.20;0.43;;;;;;;7.57;64.97;93763.13;5088039;28;20478;-75
2024/02/12 00:30:04;;;;;;;2.63;0.30;;;;;;;7.57;65.62;93765.88;5087919;28;20032;-75
2024/02/12 00:32:30;;;;;;;1.25;0.38;;;;;;;7.52;64.76;93769.19;5087187;28;20039;-75
2024/02/12 00:34:57;;;;;;;2.20;0.30;;;;;;;7.34;65.26;93771.75;5088319;28;20020;-75
2024/02/12 00:37:25;;;;;;;0.75;0.30;;;;;;;7.26;65.04;93784.16;5086902;28;20545;-74
2024/02/12 00:39:53;;;;;;;1.52;0.30;;;;;;;7.26;65.19;93787.66;5070481;28;20027;-74
2024/02/12 00:42:19;;;;;;;0.60;0.20;;;;;;;7.34;65.12;93778.00;5087284;28;20426;-75
2024/02/12 00:44:45;;;;;;;0.60;0.13;;;;;;;7.52;64.76;93782.09;5088317;28;20078;-74
2024/02/12 00:47:10;;;;;;;3.10;0.25;;;;;;;7.56;64.08;93783.47;5069471;28;20028;-74
2024/02/12 00:49:36;;;;;;;0.38;0.13;;;;;;;7.61;64.03;93769.22;5087112;28;20031;-74
2024/02/12 00:52:03;;;;;;;1.08;0.30;;;;;;;7.67;64.80;93772.16;5087892;28;20473;-75
2024/02/12 00:54:30;;;;;;;1.42;0.50;;;;;;;7.82;64.75;93767.69;5086447;28;20027;-75
2024/02/12 00:56:57;;;;;;;1.33;0.45;;;;;;;7.90;64.75;93765.44;5087666;28;20043;-75
2024/02/12 00:59:23;;;;;;;0.63;0.20;;;;;;;8.05;62.96;93760.22;5086756;28;20032;-75
2024/02/12 01:01:49;;;;;;;0.25;0.00;;;;;;;7.86;62.70;93754.66;5069488;28;20051;-74
2024/02/12 01:04:15;;;;;;;0.45;0.17;;;;;;;7.83;63.37;93749.31;5068910;28;20402;-75
2024/02/12 01:06:40;;;;;;;1.15;0.20;;;;;;;7.79;63.08;93734.97;5069143;28;20017;-74
2024/02/12 01:09:06;;;;;;;0.00;0.00;;;;;;;8.01;62.61;93754.88;5087569;28;20024;-77
2024/02/12 01:11:32;;;;;;;1.30;0.10;;;;;;;8.07;60.48;93744.09;5086442;28;20342;-76
2024/02/12 01:13:58;;;;;;;3.47;0.38;;;;;;;8.12;60.58;93746.25;5069414;28;20470;-75
2024/02/12 01:16:24;;;;;;;1.20;0.32;;;;;;;8.16;60.93;93733.97;5067874;28;20440;-75
2024/02/12 01:18:51;;;;;;;0.95;0.25;;;;;;;8.16;61.48;93722.25;5087583;28;20024;-76
2024/02/12 01:21:17;;;;;;;1.45;0.20;;;;;;;8.16;62.07;93719.50;5086281;28;20020;-75
2024/02/12 01:23:43;;;;;;;0.25;0.20;;;;;;;8.16;63.00;93709.31;5087150;28;20088;-76
2024/02/12 01:26:11;;;;;;;4.05;0.30;;;;;;;8.11;63.50;93717.38;5087207;28;20032;-74
2024/02/12 01:28:37;;;;;;;1.88;0.43;;;;;;;8.09;64.57;93709.59;5068028;28;20146;-76
2024/02/12 01:31:03;;;;;;;0.52;0.40;;;;;;;8.22;65.37;93734.91;5087365;28;20063;-75
2024/02/12 01:33:30;;;;;;;6.43;0.30;;;;;;;8.14;62.24;93730.94;5085769;28;20031;-74
2024/02/12 01:35:55;;;;;;;0.93;0.22;;;;;;;8.17;61.96;93745.66;5087222;28;20067;-76
2024/02/12 01:38:21;;;;;;;6.13;0.73;;;;;;;8.17;62.07;93737.47;5067642;28;20506;-75
2024/02/12 01:40:46;;;;;;;1.63;0.50;;;;;;;8.20;62.81;93742.81;5087116;28;20154;-75
2024/02/12 01:43:30;;;;;;;3.17;0.52;;;;;;;8.21;63.64;93738.09;5086552;28;20505;-75
2024/02/12 01:46:05;;;;;;;;;;;;;;;8.20;63.65;93736.53;5086750;28;20035;-75
2024/02/12 01:48:31;;;;;;;4.70;0.85;;;;;;;8.18;63.22;93728.03;5069781;28;19911;-74
2024/02/12 01:50:58;;;;;;;7.93;0.90;;;;;;;8.19;63.15;93727.56;5067581;28;20028;-76
2024/02/12 01:53:24;;;;;;;4.10;0.60;;;;;;;8.19;63.76;93718.59;5086966;28;20031;-76
2024/02/12 01:55:50;;;;;;;7.20;1.50;;;;;;;8.18;64.13;93717.84;5086012;28;20032;-75
2024/02/12 01:58:18;;;;;;;7.00;0.65;;;;;;;8.29;63.42;93727.63;5087270;28;20266;-75
2024/02/12 02:00:48;;;;;;;11.68;0.82;;;;;;;8.33;63.22;93711.81;5064910;28;20079;-76
2024/02/12 02:03:17;;;;;;;9.23;1.42;;;;;;;8.28;63.46;93720.63;5064481;28;20020;-76
2024/02/12 02:05:45;;;;;;;6.53;0.80;;;;;;;8.16;62.74;93714.81;5065196;28;20073;-75
2024/02/12 02:08:13;;;;;;;7.68;0.95;;;;;;;8.21;62.53;93711.47;5069443;28;20513;-75
2024/02/12 02:10:39;;;;;;;7.60;2.67;;;;;;;8.14;60.70;93700.81;5070634;28;20039;-74
2024/02/12 02:13:06;;;;;;;6.53;1.15;;;;;;;8.04;61.55;93699.25;5068493;28;20020;-75
2024/02/12 02:15:35;;;;;;;18.08;1.98;;;;;;;7.91;62.29;93699.34;5070591;28;20104;-75
2024/02/12 02:18:03;;;;;;;12.70;1.33;;;;;;;7.88;60.92;93675.59;5070614;28;20070;-75
2024/02/12 02:20:30;;;;;;;9.88;1.00;;;;;;;8.02;61.31;93677.03;5069517;28;20123;-75
2024/02/12 02:22:55;;;;;;;7.60;1.02;;;;;;;8.02;61.13;93682.50;5070751;28;20103;-75
2024/02/12 02:25:21;;;;;;;16.48;2.35;;;;;;;8.08;61.54;93683.44;5068280;28;20036;-74
2024/02/12 02:27:46;;;;;;;10.73;1.55;;;;;;;8.23;61.01;93694.59;5070392;28;20028;-75
2024/02/12 02:30:12;;;;;;;6.68;1.05;;;;;;;8.18;60.51;93701.41;5069920;28;20029;-75
2024/02/12 02:32:39;;;;;;;10.77;1.13;;;;;;;8.08;60.68;93718.25;5068873;28;20024;-75
2024/02/12 02:35:05;;;;;;;10.85;1.17;;;;;;;8.01;60.73;93704.84;5070159;28;20035;-75
2024/02/12 02:37:31;;;;;;;7.43;1.05;;;;;;;8.00;61.46;93742.41;5069586;28;20029;-75
2024/02/12 02:39:56;;;;;;;3.47;0.82;;;;;;;7.92;64.01;93716.53;5068846;28;20082;-75
2024/02/12 02:42:22;;;;;;;4.47;0.93;;;;;;;7.86;65.57;93702.66;5069077;28;20502;-75
2024/02/12 02:44:48;;;;;;;5.85;1.20;;;;;;;7.85;67.01;93697.63;5068638;28;20107;-75
2024/02/12 02:47:14;;;;;;;3.55;1.67;;;;;;;7.83;68.08;93686.38;5067582;28;20021;-75
2024/02/12 02:49:41;;;;;;;5.80;1.70;;;;;;;7.93;68.19;93690.69;5069906;28;20054;-75
2024/02/12 02:52:07;;;;;;;3.42;1.10;;;;;;;7.89;68.37;93696.28;5069124;28;20039;-75
2024/02/12 02:54:33;;;;;;;3.88;1.40;;;;;;;7.85;68.74;93700.34;5069463;28;20039;-74
2024/02/12 02:56:59;;;;;;;3.45;1.10;;;;;;;7.81;69.11;93705.97;5069823;28;20033;-77
2024/02/12 02:59:25;;;;;;;3.17;0.98;;;;;;;7.85;69.36;93711.31;5067281;28;20024;-75
2024/02/12 03:01:50;;;;;;;2.95;1.25;;;;;;;7.90;69.05;93714.22;5088031;28;20047;-75
2024/02/12 03:04:16;;;;;;;3.13;0.95;;;;;;;7.94;68.99;93722.31;5088769;28;20035;-75
2024/02/12 03:06:42;;;;;;;2.55;0.98;;;;;;;7.81;69.39;93730.59;5089953;28;20027;-75
2024/02/12 03:09:08;;;;;;;5.35;1.02;;;;;;;7.80;69.61;93720.09;5070632;28;20025;-75
2024/02/12 03:11:33;;;;;;;3.05;1.27;;;;;;;7.78;70.02;93706.09;5089828;28;20414;-75
2024/02/12 03:13:59;;;;;;;4.75;1.30;;;;;;;7.73;69.90;93710.19;5089598;28;20468;-75
2024/02/12 03:16:25;;;;;;;1.40;0.93;;;;;;;7.78;70.05;93712.34;5089152;28;20077;-74
2024/02/12 03:18:52;;;;;;;2.97;0.90;;;;;;;7.79;69.69;93718.56;5089308;28;20034;-75
2024/02/12 03:21:21;;;;;;;2.20;0.90;;;;;;;7.70;70.17;93706.38;5088431;28;20188;-75
2024/02/12 03:23:50;;;;;;;4.93;0.88;;;;;;;7.71;70.21;93696.19;5089677;28;20020;-75
2024/02/12 03:26:16;;;;;;;6.43;1.08;;;;;;;7.80;70.59;93700.94;5088705;28;20020;-75
2024/02/12 03:28:42;;;;;;;1.88;0.60;;;;;;;7.80;70.96;93700.94;5089237;28;20054;-76
2024/02/12 03:31:08;;;;;;;5.45;0.75;;;;;;;7.75;71.24;93680.41;5089372;28;20028;-76
2024/02/12 03:33:33;;;;;;;1.80;0.50;;;;;;;7.77;71.50;93660.81;5088815;28;20392;-76
2024/02/12 03:35:59;;;;;;;2.70;0.93;;;;;;;7.90;71.14;93659.50;5089799;28;20582;-75
2024/02/12 03:38:25;;;;;;;2.42;0.80;;;;;;;7.99;70.93;93642.34;5070567;28;20058;-76
2024/02/12 03:40:53;;;;;;;3.55;1.00;;;;;;;7.94;71.13;93640.97;5089455;28;20500;-75
2024/02/12 03:43:22;;;;;;;4.15;1.08;;;;;;;7.93;70.68;93619.53;5069682;28;20047;-75
2024/02/12 03:45:48;;;;;;;5.75;1.10;;;;;;;7.88;70.96;93623.63;5089037;28;20021;-75
2024/02/12 04:01:54;;;;;;;3.83;1.40;;;;;;;7.83;70.38;93626.94;5088719;28;19927;-75
2024/02/12 04:04:20;;;;;;;2.65;1.30;;;;;;;7.91;70.88;93625.47;5087791;28;20028;-75
2024/02/12 04:06:45;;;;;;;3.22;1.00;;;;;;;7.90;70.83;93595.81;5088973;28;20020;-75
2024/02/12 04:09:11;;;;;;;3.70;1.20;;;;;;;7.94;70.85;93564.34;5069376;28;20032;-76
2024/02/12 04:11:40;;;;;;;2.53;1.17;;;;;;;7.99;71.03;93541.09;5088580;28;20052;-76
2024/02/12 04:14:07;;;;;;;10.18;1.88;;;;;;;8.08;70.96;93519.19;5087977;28;20016;-75
2024/02/12 04:16:32;;;;;;;3.47;1.13;;;;;;;8.16;70.55;93506.75;5088000;28;20020;-75
2024/02/12 04:18:58;;;;;;;2.55;1.00;;;;;;;8.17;70.66;93524.69;5070295;28;20020;-76
2024/02/12 04:21:24;;;;;;;5.13;1.20;;;;;;;8.14;70.86;93535.78;5087503;28;20032;-75
2024/02/12 04:23:52;;;;;;;4.03;1.25;;;;;;;8.21;70.59;93560.91;5070234;28;20035;-75
2024/02/12 04:26:18;;;;;;;3.63;1.27;;;;;;;8.23;70.67;93574.88;5087356;28;20024;-75
2024/02/12 04:28:43;;;;;;;5.85;1.67;;;;;;;8.20;70.74;93592.25;5088152;28;20024;-76
2024/02/12 04:31:11;;;;;;;2.00;0.90;;;;;;;8.24;70.67;93620.22;5086296;28;20166;-76
2024/02/12 04:33:37;;;;;;;2.85;1.30;;;;;;;8.32;70.29;93639.88;5088024;28;20038;-75
2024/02/12 04:36:03;;;;;;;2.03;1.05;;;;;;;8.26;70.01;93628.00;5088266;28;20183;-76
2024/02/12 04:38:33;;;;;;;3.22;1.20;;;;;;;8.02;70.88;93637.94;5069271;28;20217;-74
2024/02/12 04:40:59;;;;;;;2.53;1.17;;;;;;;7.93;70.79;93638.69;5088157;28;20123;-76
2024/02/12 04:43:24;;;;;;;2.15;1.08;;;;;;;7.93;70.94;93633.97;5087280;28;20158;-77
2024/02/12 04:45:51;;;;;;;2.83;1.30;;;;;;;8.10;70.06;93631.00;5088361;28;20028;-75
2024/02/12 04:48:17;;;;;;;3.80;1.55;;;;;;;8.09;70.06;93646.66;5087588;28;20031;-76
2024/02/12 04:50:43;;;;;;;3.80;1.27;;;;;;;8.11;69.71;93651.66;5087482;28;20462;-76
2024/02/12 04:53:08;;;;;;;3.92;1.70;;;;;;;8.16;69.33;93649.09;5087314;28;20028;-77
2024/02/12 04:55:34;;;;;;;8.68;2.13;;;;;;;8.24;68.94;93646.81;5087003;28;20039;-76
2024/02/12 04:58:00;;;;;;;4.93;2.47;;;;;;;8.34;68.07;93647.63;5087653;28;20031;-77
2024/02/12 05:00:26;;;;;;;5.10;2.20;;;;;;;8.32;67.79;93639.09;5086548;28;20048;-75
2024/02/12 05:02:52;;;;;;;10.15;3.17;;;;;;;8.37;67.72;93633.03;5088119;28;20036;-76
2024/02/12 05:05:17;;;;;;;5.90;2.85;;;;;;;8.40;67.00;93626.66;5086558;28;20036;-76
2024/02/12 05:07:43;;;;;;;9.90;2.67;;;;;;;8.39;66.95;93649.78;5087617;28;20044;-76
2024/02/12 05:10:09;;;;;;;9.55;3.22;;;;;;;8.36;67.04;93645.22;5085425;28;20016;-75
2024/02/12 05:12:35;;;;;;;7.60;2.83;;;;;;;8.36;66.83;93647.94;5087446;28;20046;-76
2024/02/12 05:15:01;;;;;;;6.10;3.00;;;;;;;8.40;66.79;93649.34;5087249;28;20107;-75
2024/02/12 05:17:42;;;;;;;6.63;3.15;;;;;;;8.36;66.74;93640.50;5086481;28;20043;-76
2024/02/12 05:22:52;;;;;;;7.57;2.80;;;;;;;8.40;66.81;93657.56;5086547;28;20043;-75
2024/02/12 05:25:19;;;;;;;9.32;2.88;;;;;;;8.34;66.91;93655.84;5087439;28;20024;-76
2024/02/12 05:27:46;;;;;;;4.82;2.78;;;;;;;8.43;66.85;93653.13;5086814;28;20113;-77
2024/02/12 05:30:11;;;;;;;6.45;2.83;;;;;;;8.42;66.73;93652.38;5086666;28;20089;-76
2024/02/12 05:32:39;;;;;;;7.68;2.50;;;;;;;8.43;66.42;93666.81;5087410;28;20063;-76
2024/02/12 05:35:05;;;;;;;9.52;3.45;;;;;;;8.55;66.04;93662.47;5086291;28;20092;-75
2024/02/12 05:37:30;;;;;;;5.63;2.38;;;;;;;8.48;66.25;93660.75;5087657;28;20099;-75
2024/02/12 05:39:59;;;;;;;9.00;3.08;;;;;;;8.49;66.41;93651.34;5086196;28;20103;-77
2024/02/12 05:42:24;;;;;;;5.65;2.88;;;;;;;8.51;66.10;93652.41;5069229;28;20105;-77
2024/02/12 05:44:49;;;;;;;10.55;3.75;;;;;;;8.48;66.24;93647.06;5086641;28;20165;-77
2024/02/12 05:47:15;;;;;;;14.93;5.15;;;;;;;8.41;66.59;93659.06;5087015;28;20417;-77
2024/02/12 05:49:40;;;;;;;12.80;6.78;;;;;;;8.35;67.09;93660.84;5086915;28;20034;-78
2024/02/12 05:52:06;;;;;;;11.82;5.32;;;;;;;8.29;67.45;93662.66;5086119;28;20489;-77
2024/02/12 05:54:32;;;;;;;8.70;5.30;;;;;;;8.18;68.17;93673.28;5069360;28;20411;-77
2024/02/12 05:56:57;;;;;;;11.15;5.53;;;;;;;8.25;68.31;93676.50;5067799;28;20028;-75
2024/02/12 05:59:24;;;;;;;12.25;6.35;;;;;;;8.22;68.62;93668.44;5087383;28;20031;-76
2024/02/12 06:01:50;;;;;;;9.32;5.95;;;;;;;8.18;68.78;93665.81;5085815;28;20083;-76
2024/02/12 06:04:16;;;;;;;14.45;5.57;;;;;;;8.22;68.85;93671.94;5069081;28;20510;-77
2024/02/12 06:06:42;;;;;;;11.13;6.35;;;;;;;8.21;68.86;93670.41;5086969;28;20028;-82
2024/02/12 06:09:08;;;;;;;10.77;6.53;;;;;;;8.27;69.12;93672.56;5086245;28;20103;-77
2024/02/12 06:11:33;;;;;;;6.85;5.22;;;;;;;8.35;69.06;93679.25;5086977;28;20494;-77
2024/02/12 06:13:59;;;;;;;11.90;5.93;;;;;;;8.30;68.93;93664.19;5086126;28;20498;-78
2024/02/12 06:16:24;;;;;;;10.38;5.38;;;;;;;8.36;68.97;93654.19;5087370;28;20028;-76
2024/02/12 06:18:51;;;;;;;11.23;3.95;;;;;;;8.39;68.71;93663.50;5085570;28;20067;-77
2024/02/12 06:21:17;;;;;;;9.00;4.10;;;;;;;8.43;68.17;93659.41;5087045;28;20028;-77
2024/02/12 06:23:43;;;;;;;7.60;4.32;;;;;;;8.44;68.36;93665.63;5086364;28;20020;-78
2024/02/12 06:26:08;;;;;;;7.50;4.57;;;;;;;8.44;68.20;93662.88;5087233;28;20023;-77
2024/02/12 06:28:34;;;;;;;7.35;4.32;;;;;;;8.45;68.11;93651.47;5068481;28;20471;-77
2024/02/12 06:30:59;;;;;;;9.05;4.18;;;;;;;8.49;67.90;93637.66;5086130;28;20032;-77
2024/02/12 06:33:25;;;;;;;9.02;4.38;;;;;;;8.52;67.85;93629.25;5068825;28;20033;-77
2024/02/12 06:35:51;;;;;;;9.23;4.43;;;;;;;8.52;67.16;93634.75;5085345;28;20111;-77
2024/02/12 06:38:17;;;;;;;8.00;4.20;;;;;;;8.46;67.30;93639.28;5086968;28;20024;-76
2024/02/12 06:40:43;;;;;;;10.02;4.15;;;;;;;8.51;67.16;93640.69;5085478;28;20523;-78
2024/02/12 06:43:09;;;;;;;6.90;4.85;;;;;;;8.54;66.91;93630.78;5086799;28;20028;-77
2024/02/12 06:45:34;;;;;;;9.77;5.45;;;;;;;8.52;67.32;93626.53;5086166;28;20028;-77
2024/02/12 06:48:00;;;;;;;10.85;3.67;;;;;;;8.49;66.75;93611.00;5085958;28;20047;-76
2024/02/12 06:50:25;;;;;;;8.20;3.70;;;;;;;8.59;66.34;93619.97;5086695;28;20020;-77
2024/02/12 06:52:51;;;;;;;7.30;4.38;;;;;;;8.65;66.03;93611.91;5085524;28;20426;-77
2024/02/12 06:55:16;;;;;;;6.20;4.63;;;;;;;8.67;65.80;93621.22;5090383;28;20028;-77
2024/02/12 06:57:45;;;;;;;13.32;5.57;;;;;;;8.69;65.73;93618.03;5089297;28;20150;-78
2024/02/12 07:00:15;;;;;;;12.35;6.65;;;;;;;8.65;66.36;93617.41;5071771;28;20544;-73
2024/02/12 07:02:41;;;;;;;11.98;5.72;;;;;;;8.73;66.31;93621.38;5089361;28;20111;-74
2024/02/12 07:05:06;;;;;;;16.25;5.40;;;;;;;8.76;66.27;93623.94;5089655;28;20158;-74
2024/02/12 07:07:32;;;;;;;14.38;5.38;;;;;;;8.73;65.81;93624.88;5090090;28;20027;-74
2024/02/12 07:09:58;;;;;;;11.77;5.72;;;;;;;8.74;65.86;93629.13;5088818;28;20402;-74
2024/02/12 07:12:23;;;;;;;12.18;5.70;;;;;;;8.74;65.95;93631.88;5090284;28;20054;-75
2024/02/12 07:14:51;;;;;;;11.13;5.25;;;;;;;8.77;65.89;93630.97;5088487;28;20443;-74
2024/02/12 07:17:16;;;;;;;10.32;5.53;;;;;;;8.77;65.80;93622.75;5089992;28;20024;-73
2024/02/12 07:19:46;;;;;;;12.10;4.95;;;;;;;8.82;65.27;93620.59;5088272;28;20086;-78
2024/02/12 07:22:12;;;;;;;8.10;3.97;;;;;;;8.75;65.18;93622.44;5072203;28;20028;-78
2024/02/12 07:24:37;;;;;;;6.70;3.95;;;;;;;8.78;64.23;93629.00;5089537;28;20206;-75
2024/02/12 07:27:03;;;;;;;11.95;4.38;;;;;;;8.81;63.88;93628.06;5088845;28;20414;-74
2024/02/12 07:29:28;;;;;;;13.82;4.55;;;;;;;8.89;63.83;93631.25;5089735;28;20103;-74
2024/02/12 07:31:54;;;;;;;10.05;4.03;;;;;;;8.89;63.75;93631.25;5088410;28;20055;-74
2024/02/12 07:34:19;;;;;;;15.95;4.47;;;;;;;8.93;63.26;93629.13;5089898;28;20467;-76
2024/02/12 07:36:45;;;;;;;13.52;4.30;;;;;;;8.95;62.97;93627.47;5070165;28;20030;-73
2024/02/12 07:39:11;;;;;;;13.68;5.53;;;;;;;9.00;62.58;93624.13;5089272;28;20458;-73
2024/02/12 07:41:39;;;;;;;9.30;3.53;;;;;;;9.11;62.23;93631.09;5070693;28;20116;-73
2024/02/12 07:44:05;;;;;;;13.50;3.95;;;;;;;9.13;62.21;93634.91;5070579;28;20437;-74
2024/02/12 07:46:32;;;;;;;12.98;4.10;;;;;;;9.13;61.96;93648.63;5089204;28;20056;-74
2024/02/12 07:48:58;;;;;;;15.60;4.00;;;;;;;9.17;61.59;93651.94;5087920;28;20039;-74
2024/02/12 07:51:23;;;;;;;13.80;3.38;;;;;;;9.18;61.56;93648.00;5088877;28;20024;-74
2024/02/12 07:53:48;;;;;;;9.90;2.92;;;;;;;9.32;61.04;93663.06;5087654;28;20480;-74
2024/02/12 07:56:14;;;;;;;14.63;4.05;;;;;;;9.29;60.99;93658.50;5054152;28;20024;-74
2024/02/12 07:58:39;;;;;;;12.77;4.40;;;;;;;9.28;61.18;93670.66;5069712;28;20024;-74
2024/02/12 08:01:05;;;;;;;15.80;5.00;;;;;;;9.31;61.14;93661.53;5088743;28;20048;-74
2024/02/12 08:03:30;;;;;;;11.35;3.90;;;;;;;9.35;61.17;93675.09;5089037;28;20071;-73
2024/02/12 08:05:56;;;;;;;14.05;4.68;;;;;;;9.40;61.22;93663.50;5087812;28;20028;-74
2024/02/12 08:08:21;;;;;;;11.45;3.95;;;;;;;9.50;60.97;93676.75;5088854;28;20024;-73
2024/02/12 08:10:47;;;;;;;14.80;4.13;;;;;;;9.51;61.16;93675.50;5087585;28;20024;-74
2024/02/12 08:13:13;;;;;;;9.85;3.88;;;;;;;9.56;61.04;93687.84;5088952;28;20058;-75
2024/02/12 08:15:39;;;;;;;16.75;4.47;;;;;;;9.47;61.33;93680.41;5087586;28;20119;-74
2024/02/12 08:18:06;;;;;;;11.95;4.85;;;;;;;9.56;61.90;93687.84;5088758;28;20040;-74
2024/02/12 08:20:32;;;;;;;12.63;4.25;;;;;;;9.61;61.61;93692.72;5088159;28;20454;-75
2024/02/12 08:22:57;;;;;;;11.02;3.83;;;;;;;9.65;61.50;93704.31;5087557;28;20024;-74
2024/02/12 08:25:24;;;;;;;10.27;4.32;;;;;;;9.66;61.21;93708.56;5088529;28;20088;-75
2024/02/12 08:27:49;;;;;;;10.70;4.82;;;;;;;9.67;61.36;93718.31;5087278;28;20493;-75
2024/02/12 08:30:15;;;;;;;9.85;4.35;;;;;;;9.65;61.47;93717.28;5088677;28;20031;-74
2024/02/12 08:32:41;;;;;;;15.07;5.50;;;;;;;9.45;62.01;93725.97;5087149;28;20028;-73
2024/02/12 08:35:07;;;;;;;16.38;6.60;;;;;;;9.48;62.34;93725.81;5088342;28;20020;-74
2024/02/12 08:37:34;;;;;;;11.63;4.70;;;;;;;9.61;62.41;93728.41;5087796;28;20024;-74
2024/02/12 08:40:00;;;;;;;10.95;4.68;;;;;;;9.76;61.78;93718.31;5088010;28;20234;-74
2024/02/12 08:42:26;;;;;;;15.00;4.95;;;;;;;9.90;61.22;93732.59;5087967;28;20173;-74
2024/02/12 08:44:51;;;;;;;16.95;5.07;;;;;;;10.01;61.26;93741.88;5086917;28;20028;-74
2024/02/12 08:47:17;;;;;;;8.60;4.60;;;;;;;10.10;60.74;93732.88;5088262;28;20024;-74
2024/02/12 08:49:45;;;;;;;12.30;5.47;;;;;;;10.14;60.64;93732.69;5086849;28;20390;-76
2024/02/12 08:52:11;;;;;;;15.45;6.95;;;;;;;10.26;60.55;93735.25;5087691;28;20192;-74
2024/02/12 08:54:37;;;;;;;14.38;6.72;;;;;;;10.40;60.67;93725.59;5087004;28;20429;-76
2024/02/12 08:57:06;;;;;;;13.02;6.90;;;;;;;10.55;60.28;93728.44;5069347;28;20032;-74
2024/02/12 08:59:32;;;;;;;10.15;6.75;;;;;;;10.55;59.66;93720.97;5087558;28;20028;-74
2024/02/12 09:01:58;;;;;;;16.02;7.10;;;;;;;10.79;59.04;93729.22;5086241;28;20114;-75
2024/02/12 09:04:23;;;;;;;11.80;6.00;;;;;;;10.95;58.41;93725.28;5087739;28;20046;-74
2024/02/12 09:06:49;;;;;;;14.85;6.60;;;;;;;10.97;58.44;93722.09;5068146;28;20020;-73
2024/02/12 09:09:15;;;;;;;14.90;5.47;;;;;;;11.03;57.73;93715.47;5087696;28;20024;-75
2024/02/12 09:11:41;;;;;;;12.77;6.38;;;;;;;11.37;57.54;93718.91;5086602;28;20028;-73
2024/02/12 09:14:08;;;;;;;15.70;7.10;;;;;;;11.75;56.85;93706.31;5069202;28;20035;-74
2024/02/12 09:16:33;;;;;;;11.82;6.25;;;;;;;13.02;53.90;93706.03;5086653;28;20055;-74
2024/02/12 09:18:59;;;;;;;9.57;6.07;;;;;;;14.56;49.46;93706.56;5086591;28;20502;-74
2024/02/12 09:21:24;;;;;;;18.02;5.57;;;;;;;15.26;47.38;93707.22;5087410;28;20031;-75
2024/02/12 09:23:49;;;;;;;14.45;5.80;;;;;;;16.46;43.61;93697.41;5086048;28;20066;-75
2024/02/12 09:26:16;;;;;;;14.93;5.78;;;;;;;17.72;41.92;93696.13;5069261;28;20028;-74
2024/02/12 09:28:44;;;;;;;11.00;5.28;;;;;;;19.12;38.44;93699.09;5086480;28;20081;-74
2024/02/12 09:31:09;;;;;;;11.23;2.38;;;;;;;19.63;34.39;93694.47;5087257;28;20096;-74
2024/02/12 09:33:35;;;;;;;10.73;6.00;;;;;;;20.45;34.86;93679.09;5086421;28;20379;-75
2024/02/12 09:36:00;;;;;;;13.15;4.50;;;;;;;21.52;32.89;93674.47;5068370;28;20113;-74
2024/02/12 09:38:27;;;;;;;11.88;3.63;;;;;;;22.67;30.92;93685.66;5086815;28;20119;-74
2024/02/12 09:40:53;;;;;;;7.28;1.27;;;;;;;22.64;27.15;93691.56;5085964;28;20077;-74
2024/02/12 09:43:22;;;;;;;8.63;2.00;;;;;;;22.66;26.50;93684.16;5087419;28;20090;-73
2024/02/12 09:45:49;;;;;;;6.82;2.15;;;;;;;21.83;27.74;93681.16;5085494;28;20463;-74
2024/02/12 09:48:15;;;;;;;10.48;2.35;;;;;;;22.36;27.31;93656.59;5069001;28;20020;-74
2024/02/12 09:50:44;;;;;;;12.23;3.40;;;;;;;22.89;26.84;93664.75;5085902;28;20043;-75
2024/02/12 09:53:14;;;;;;;12.90;2.15;;;;;;;22.21;27.04;93643.22;5068713;28;20034;-74
2024/02/12 09:55:40;;;;;;;12.77;2.05;;;;;;;22.77;26.45;93661.47;5068754;28;20031;-74
2024/02/12 09:58:06;;;;;;;13.90;2.20;;;;;;;23.18;25.90;93664.78;5067613;28;20024;-74
2024/02/12 10:00:32;;;;;;;12.98;1.90;;;;;;;24.27;24.49;93655.00;5086839;28;20052;-75
2024/02/12 10:02:57;;;;;;;9.10;2.13;;;;;;;25.23;24.08;93649.09;5085381;28;20035;-74
2024/02/12 10:05:23;;;;;;;8.73;2.15;;;;;;;25.72;24.11;93650.69;5086948;28;20025;-75
2024/02/12 10:07:50;;;;;;;9.38;1.85;;;;;;;25.95;23.22;93654.19;5085639;28;20024;-74
2024/02/12 10:10:17;;;;;;;12.25;4.85;;;;;;;25.19;23.48;93649.50;5068808;28;20498;-75
2024/02/12 10:12:43;;;;;;;10.68;2.15;;;;;;;23.87;23.78;93662.38;5086615;28;20157;-74
2024/02/12 10:15:13;;;;;;;13.57;1.60;;;;;;;24.03;24.96;93635.84;5085827;28;20110;-76
2024/02/12 10:17:39;;;;;;;5.57;1.20;;;;;;;24.13;24.26;93666.94;5086849;28;20439;-75
2024/02/12 10:20:09;;;;;;;13.32;1.88;;;;;;;22.11;26.58;93677.78;5085230;28;20414;-74
2024/02/12 10:22:36;;;;;;;10.30;1.40;;;;;;;21.36;27.99;93640.69;5086833;28;20020;-76
2024/02/12 10:25:02;;;;;;;10.02;1.20;;;;;;;20.48;28.79;93678.06;5067648;28;20047;-75
2024/02/12 10:27:28;;;;;;;9.07;1.67;;;;;;;20.99;27.65;93666.00;5087575;28;20016;-75
2024/02/12 10:29:58;;;;;;;9.35;2.13;;;;;;;20.83;28.12;93663.00;5090068;28;20027;-74
2024/02/12 10:32:24;;;;;;;10.85;1.40;;;;;;;20.25;30.01;93655.31;5090178;28;20432;-75
2024/02/12 10:34:57;;;;;;;6.90;1.20;;;;;;;19.22;31.21;93653.66;5072084;28;20520;-75
2024/02/12 10:37:25;;;;;;;10.60;1.80;;;;;;;18.06;33.24;93645.84;5089629;28;20024;-75
2024/02/12 10:39:55;;;;;;;10.25;2.63;;;;;;;18.04;33.10;93651.16;5072285;28;20089;-74
2024/02/12 10:42:49;;;;;;;7.72;2.03;;;;;;;18.16;32.78;93646.28;5089376;28;20055;-74
2024/02/12 10:45:16;;;;;;;4.55;1.25;;;;;;;19.58;30.81;93633.94;5062937;28;20036;-74
2024/02/12 10:47:41;;;;;;;6.72;1.40;;;;;;;20.96;29.08;93628.75;5090321;28;20051;-74
2024/02/12 10:50:08;;;;;;;7.05;1.15;;;;;;;21.32;27.93;93642.31;5089126;28;20172;-74
2024/02/12 10:52:36;;;;;;;6.63;1.00;;;;;;;21.39;28.27;93639.63;5072059;28;20039;-74
2024/02/12 10:55:03;;;;;;;6.75;1.15;;;;;;;22.55;27.09;93636.81;5088810;28;20429;-74
2024/02/12 10:57:29;;;;;;;9.73;1.52;;;;;;;23.12;26.38;93622.88;5090253;28;20032;-73
2024/02/12 11:00:01;;;;;;;10.68;1.27;;;;;;;24.45;24.83;93629.97;5070787;28;20035;-74
2024/02/12 11:02:26;;;;;;;13.23;1.48;;;;;;;25.20;23.33;93610.88;5089721;28;20024;-75
2024/02/12 11:04:57;;;;;;;12.10;1.13;;;;;;;25.94;21.96;93611.22;5089756;28;20107;-74
2024/02/12 11:07:25;;;;;;;10.23;1.33;;;;;;;27.21;21.10;93594.56;5088955;28;20442;-74
2024/02/12 11:10:18;;;;;;;11.60;1.67;;;;;;;27.64;20.05;93595.22;5089915;28;20099;-75
2024/02/12 11:12:47;;;;;;;9.57;1.80;;;;;;;27.69;19.86;93599.88;5067610;28;20043;-74
2024/02/12 11:15:19;;;;;;;12.23;1.60;;;;;;;28.93;19.31;93608.22;5071672;28;20056;-75
2024/02/12 11:17:44;;;;;;;8.73;1.33;;;;;;;28.81;18.99;93591.78;5089679;28;20081;-77
2024/02/12 11:20:20;;;;;;;9.82;1.20;;;;;;;29.69;18.23;93604.03;5088395;28;20043;-75
2024/02/12 11:22:46;;;;;;;9.15;1.50;;;;;;;29.94;17.75;93617.16;5090091;28;20466;-74
2024/02/12 11:25:15;;;;;;;7.75;1.27;;;;;;;29.99;18.42;93601.94;5088467;28;20052;-74
2024/02/12 11:27:41;;;;;;;7.75;1.30;;;;;;;31.00;17.36;93601.97;5089820;28;20107;-75
2024/02/12 11:30:10;;;;;;;10.18;1.33;;;;;;;29.76;18.89;93614.44;5070850;28;20499;-74
2024/02/12 11:32:36;;;;;;;10.02;1.23;;;;;;;29.99;18.09;93596.25;5071354;28;20052;-74
2024/02/12 11:35:18;;;;;;;10.27;1.83;;;;;;;27.59;20.81;93593.41;5089897;28;20032;-75
2024/02/12 11:37:45;;;;;;;8.00;1.30;;;;;;;28.55;19.62;93598.19;5070189;28;20028;-74
2024/02/12 11:40:16;;;;;;;9.20;1.48;;;;;;;30.41;17.94;93599.34;5088533;28;20051;-75
2024/02/12 11:42:50;;;;;;;11.00;1.40;;;;;;;29.49;18.21;93603.25;5070208;28;20035;-74
2024/02/12 11:45:21;;;;;;;5.50;1.30;;;;;;;29.51;18.69;93580.00;5089294;28;20038;-74
2024/02/12 11:47:47;;;;;;;10.65;1.90;;;;;;;29.44;18.92;93597.88;5089060;28;20478;-74
2024/02/12 11:50:26;;;;;;;6.93;1.55;;;;;;;28.82;19.26;93584.03;5087897;28;20078;-74